sensor_id;sensor_type;location;lat;lon;timestamp;P1;durP1;ratioP1;P2;durP2;ratioP2
42000;SDS011;27689;48.390;10.856;2022-12-16T00:01:39;50.72;;;30.42;;
42000;SDS011;27689;48.390;10.856;2022-12-16T00:04:22;41.67;;;28.17;;
42000;SDS011;27689;48.390;10.856;2022-12-16T00:07:06;45.83;;;29.45;;
42000;SDS011;27689;48.390;10.856;2022-12-16T00:09:50;46.60;;;28.00;;
42000;SDS011;27689;48.390;10.856;2022-12-16T00:12:34;48.22;;;30.00;;
42000;SDS011;27689;48.390;10.856;2022-12-16T00:15:18;47.53;;;29.60;;
42000;SDS011;27689;48.390;10.856;2022-12-16T00:18:02;46.65;;;29.25;;
42000;SDS011;27689;48.390;10.856;2022-12-16T00:20:47;44.10;;;27.92;;
42000;SDS011;27689;48.390;10.856;2022-12-16T00:23:33;44.67;;;27.50;;
42000;SDS011;27689;48.390;10.856;2022-12-16T00:26:17;44.03;;;26.50;;
42000;SDS011;27689;48.390;10.856;2022-12-16T00:29:01;39.25;;;26.30;;
42000;SDS011;27689;48.390;10.856;2022-12-16T00:31:47;44.72;;;28.02;;
42000;SDS011;27689;48.390;10.856;2022-12-16T00:34:31;43.77;;;27.63;;
42000;SDS011;27689;48.390;10.856;2022-12-16T00:37:15;47.85;;;28.05;;
42000;SDS011;27689;48.390;10.856;2022-12-16T00:39:59;43.42;;;27.30;;
42000;SDS011;27689;48.390;10.856;2022-12-16T00:42:43;44.75;;;27.23;;
42000;SDS011;27689;48.390;10.856;2022-12-16T00:45:28;42.22;;;27.67;;
42000;SDS011;27689;48.390;10.856;2022-12-16T00:48:12;44.40;;;27.08;;
42000;SDS011;27689;48.390;10.856;2022-12-16T00:53:41;42.65;;;27.30;;
42000;SDS011;27689;48.390;10.856;2022-12-16T00:56:25;41.72;;;27.75;;
42000;SDS011;27689;48.390;10.856;2022-12-16T00:59:09;42.90;;;26.55;;
42000;SDS011;27689;48.390;10.856;2022-12-16T01:01:53;43.35;;;26.48;;
42000;SDS011;27689;48.390;10.856;2022-12-16T01:04:37;45.65;;;27.52;;
42000;SDS011;27689;48.390;10.856;2022-12-16T01:07:21;42.55;;;27.83;;
42000;SDS011;27689;48.390;10.856;2022-12-16T01:10:05;46.33;;;28.98;;
42000;SDS011;27689;48.390;10.856;2022-12-16T01:12:50;44.25;;;27.88;;
42000;SDS011;27689;48.390;10.856;2022-12-16T01:15:36;42.63;;;27.17;;
42000;SDS011;27689;48.390;10.856;2022-12-16T01:18:20;43.25;;;27.63;;
42000;SDS011;27689;48.390;10.856;2022-12-16T01:21:05;41.13;;;26.27;;
42000;SDS011;27689;48.390;10.856;2022-12-16T01:23:51;41.80;;;27.35;;
42000;SDS011;27689;48.390;10.856;2022-12-16T01:26:35;40.20;;;26.70;;
42000;SDS011;27689;48.390;10.856;2022-12-16T01:29:19;43.20;;;28.30;;
42000;SDS011;27689;48.390;10.856;2022-12-16T01:32:04;36.63;;;24.45;;
42000;SDS011;27689;48.390;10.856;2022-12-16T01:34:49;38.92;;;26.00;;
42000;SDS011;27689;48.390;10.856;2022-12-16T01:37:34;40.95;;;27.63;;
42000;SDS011;27689;48.390;10.856;2022-12-16T01:40:19;41.80;;;27.73;;
42000;SDS011;27689;48.390;10.856;2022-12-16T01:43:11;42.45;;;27.40;;
42000;SDS011;27689;48.390;10.856;2022-12-16T01:45:58;38.90;;;25.50;;
42000;SDS011;27689;48.390;10.856;2022-12-16T01:51:39;41.00;;;25.40;;
42000;SDS011;27689;48.390;10.856;2022-12-16T01:54:28;38.65;;;26.17;;
42000;SDS011;27689;48.390;10.856;2022-12-16T01:57:22;38.83;;;26.02;;
42000;SDS011;27689;48.390;10.856;2022-12-16T02:00:11;39.42;;;25.80;;
42000;SDS011;27689;48.390;10.856;2022-12-16T02:05:41;38.67;;;24.02;;
42000;SDS011;27689;48.390;10.856;2022-12-16T02:08:27;40.33;;;24.13;;
42000;SDS011;27689;48.390;10.856;2022-12-16T02:11:56;36.75;;;23.55;;
42000;SDS011;27689;48.390;10.856;2022-12-16T02:17:18;38.10;;;25.08;;
42000;SDS011;27689;48.390;10.856;2022-12-16T02:30:06;34.80;;;22.20;;
42000;SDS011;27689;48.390;10.856;2022-12-16T02:42:29;31.77;;;21.20;;
42000;SDS011;27689;48.390;10.856;2022-12-16T02:45:17;33.42;;;21.63;;
42000;SDS011;27689;48.390;10.856;2022-12-16T02:48:07;35.00;;;21.13;;
42000;SDS011;27689;48.390;10.856;2022-12-16T02:50:51;32.53;;;20.38;;
42000;SDS011;27689;48.390;10.856;2022-12-16T02:53:36;31.08;;;20.77;;
42000;SDS011;27689;48.390;10.856;2022-12-16T02:56:45;35.85;;;21.77;;
42000;SDS011;27689;48.390;10.856;2022-12-16T03:02:35;32.60;;;20.75;;
42000;SDS011;27689;48.390;10.856;2022-12-16T03:05:31;34.40;;;21.08;;
42000;SDS011;27689;48.390;10.856;2022-12-16T03:08:29;34.38;;;21.85;;
42000;SDS011;27689;48.390;10.856;2022-12-16T03:11:16;36.97;;;22.45;;
42000;SDS011;27689;48.390;10.856;2022-12-16T03:14:01;35.35;;;21.70;;
42000;SDS011;27689;48.390;10.856;2022-12-16T03:16:47;34.03;;;22.23;;
42000;SDS011;27689;48.390;10.856;2022-12-16T03:19:32;34.95;;;22.13;;
42000;SDS011;27689;48.390;10.856;2022-12-16T03:22:26;34.22;;;20.67;;
42000;SDS011;27689;48.390;10.856;2022-12-16T03:25:12;38.30;;;23.48;;
42000;SDS011;27689;48.390;10.856;2022-12-16T03:28:07;36.03;;;23.00;;
42000;SDS011;27689;48.390;10.856;2022-12-16T03:30:57;35.55;;;22.02;;
42000;SDS011;27689;48.390;10.856;2022-12-16T03:33:56;38.50;;;23.08;;
42000;SDS011;27689;48.390;10.856;2022-12-16T03:36:48;38.10;;;22.95;;
42000;SDS011;27689;48.390;10.856;2022-12-16T03:39:39;35.92;;;22.63;;
42000;SDS011;27689;48.390;10.856;2022-12-16T03:42:26;40.92;;;24.48;;
42000;SDS011;27689;48.390;10.856;2022-12-16T03:45:12;35.72;;;23.35;;
42000;SDS011;27689;48.390;10.856;2022-12-16T03:48:00;35.33;;;22.85;;
42000;SDS011;27689;48.390;10.856;2022-12-16T03:50:45;38.13;;;23.98;;
42000;SDS011;27689;48.390;10.856;2022-12-16T03:53:28;35.70;;;22.23;;
42000;SDS011;27689;48.390;10.856;2022-12-16T03:56:12;39.92;;;23.08;;
42000;SDS011;27689;48.390;10.856;2022-12-16T03:58:56;39.40;;;25.55;;
42000;SDS011;27689;48.390;10.856;2022-12-16T04:01:41;43.60;;;26.63;;
42000;SDS011;27689;48.390;10.856;2022-12-16T04:04:25;37.75;;;24.70;;
42000;SDS011;27689;48.390;10.856;2022-12-16T04:07:09;45.53;;;26.40;;
42000;SDS011;27689;48.390;10.856;2022-12-16T04:10:07;41.50;;;25.20;;
42000;SDS011;27689;48.390;10.856;2022-12-16T04:12:52;37.85;;;24.80;;
42000;SDS011;27689;48.390;10.856;2022-12-16T04:15:54;40.97;;;25.23;;
42000;SDS011;27689;48.390;10.856;2022-12-16T04:18:57;40.60;;;25.73;;
42000;SDS011;27689;48.390;10.856;2022-12-16T04:22:00;43.30;;;25.70;;
42000;SDS011;27689;48.390;10.856;2022-12-16T04:25:08;45.30;;;27.88;;
42000;SDS011;27689;48.390;10.856;2022-12-16T04:27:55;44.58;;;26.95;;
42000;SDS011;27689;48.390;10.856;2022-12-16T04:30:41;44.83;;;26.00;;
42000;SDS011;27689;48.390;10.856;2022-12-16T04:33:25;42.08;;;27.48;;
42000;SDS011;27689;48.390;10.856;2022-12-16T04:36:28;40.85;;;25.77;;
42000;SDS011;27689;48.390;10.856;2022-12-16T04:39:31;48.97;;;28.52;;
42000;SDS011;27689;48.390;10.856;2022-12-16T04:42:34;46.05;;;27.02;;
42000;SDS011;27689;48.390;10.856;2022-12-16T04:45:37;44.92;;;28.05;;
42000;SDS011;27689;48.390;10.856;2022-12-16T04:48:40;44.75;;;27.27;;
42000;SDS011;27689;48.390;10.856;2022-12-16T04:51:47;43.53;;;27.88;;
42000;SDS011;27689;48.390;10.856;2022-12-16T04:54:50;48.10;;;27.95;;
42000;SDS011;27689;48.390;10.856;2022-12-16T04:57:54;50.70;;;28.63;;
42000;SDS011;27689;48.390;10.856;2022-12-16T05:00:58;46.47;;;28.15;;
42000;SDS011;27689;48.390;10.856;2022-12-16T05:04:01;43.17;;;26.20;;
42000;SDS011;27689;48.390;10.856;2022-12-16T05:07:04;44.20;;;26.98;;
42000;SDS011;27689;48.390;10.856;2022-12-16T05:10:07;47.20;;;28.48;;
42000;SDS011;27689;48.390;10.856;2022-12-16T05:13:10;49.33;;;29.52;;
42000;SDS011;27689;48.390;10.856;2022-12-16T05:16:13;49.83;;;30.77;;
42000;SDS011;27689;48.390;10.856;2022-12-16T05:19:15;47.33;;;27.85;;
42000;SDS011;27689;48.390;10.856;2022-12-16T05:22:18;41.42;;;26.25;;
42000;SDS011;27689;48.390;10.856;2022-12-16T05:25:21;50.50;;;29.15;;
42000;SDS011;27689;48.390;10.856;2022-12-16T05:28:24;47.53;;;29.38;;
42000;SDS011;27689;48.390;10.856;2022-12-16T05:31:27;49.15;;;30.27;;
42000;SDS011;27689;48.390;10.856;2022-12-16T05:34:30;53.22;;;31.02;;
42000;SDS011;27689;48.390;10.856;2022-12-16T05:37:33;50.88;;;29.58;;
42000;SDS011;27689;48.390;10.856;2022-12-16T05:40:36;49.58;;;28.58;;
42000;SDS011;27689;48.390;10.856;2022-12-16T05:43:39;51.33;;;30.35;;
42000;SDS011;27689;48.390;10.856;2022-12-16T05:46:41;50.15;;;29.42;;
42000;SDS011;27689;48.390;10.856;2022-12-16T05:49:44;50.92;;;29.98;;
42000;SDS011;27689;48.390;10.856;2022-12-16T05:52:50;47.90;;;28.55;;
42000;SDS011;27689;48.390;10.856;2022-12-16T05:55:57;53.08;;;31.52;;
42000;SDS011;27689;48.390;10.856;2022-12-16T05:59:00;48.20;;;29.40;;
42000;SDS011;27689;48.390;10.856;2022-12-16T06:02:03;50.03;;;30.17;;
42000;SDS011;27689;48.390;10.856;2022-12-16T06:05:06;53.05;;;31.50;;
42000;SDS011;27689;48.390;10.856;2022-12-16T06:08:09;50.65;;;32.20;;
42000;SDS011;27689;48.390;10.856;2022-12-16T06:11:12;52.40;;;31.75;;
42000;SDS011;27689;48.390;10.856;2022-12-16T06:14:15;54.40;;;31.85;;
42000;SDS011;27689;48.390;10.856;2022-12-16T06:17:19;55.20;;;33.00;;
42000;SDS011;27689;48.390;10.856;2022-12-16T06:20:23;53.00;;;31.65;;
42000;SDS011;27689;48.390;10.856;2022-12-16T06:23:26;60.15;;;33.88;;
42000;SDS011;27689;48.390;10.856;2022-12-16T06:26:29;54.90;;;32.08;;
42000;SDS011;27689;48.390;10.856;2022-12-16T06:29:32;53.88;;;32.35;;
42000;SDS011;27689;48.390;10.856;2022-12-16T06:32:35;50.90;;;30.83;;
42000;SDS011;27689;48.390;10.856;2022-12-16T06:35:37;52.50;;;32.33;;
42000;SDS011;27689;48.390;10.856;2022-12-16T06:38:40;53.75;;;32.15;;
42000;SDS011;27689;48.390;10.856;2022-12-16T06:41:43;52.83;;;31.00;;
42000;SDS011;27689;48.390;10.856;2022-12-16T06:44:46;53.67;;;31.85;;
42000;SDS011;27689;48.390;10.856;2022-12-16T06:47:48;55.38;;;32.42;;
42000;SDS011;27689;48.390;10.856;2022-12-16T06:50:51;53.67;;;32.22;;
42000;SDS011;27689;48.390;10.856;2022-12-16T06:53:54;54.58;;;32.42;;
42000;SDS011;27689;48.390;10.856;2022-12-16T06:56:57;55.50;;;32.65;;
42000;SDS011;27689;48.390;10.856;2022-12-16T07:00:00;54.75;;;33.08;;
42000;SDS011;27689;48.390;10.856;2022-12-16T07:03:02;56.28;;;34.45;;
42000;SDS011;27689;48.390;10.856;2022-12-16T07:06:06;57.60;;;33.67;;
42000;SDS011;27689;48.390;10.856;2022-12-16T07:09:08;56.47;;;33.75;;
42000;SDS011;27689;48.390;10.856;2022-12-16T07:12:11;54.60;;;33.13;;
42000;SDS011;27689;48.390;10.856;2022-12-16T07:15:14;55.53;;;33.13;;
42000;SDS011;27689;48.390;10.856;2022-12-16T07:18:17;57.10;;;33.80;;
42000;SDS011;27689;48.390;10.856;2022-12-16T07:21:19;55.25;;;33.25;;
42000;SDS011;27689;48.390;10.856;2022-12-16T07:24:22;58.55;;;34.42;;
42000;SDS011;27689;48.390;10.856;2022-12-16T07:27:25;55.42;;;33.33;;
42000;SDS011;27689;48.390;10.856;2022-12-16T07:30:28;51.42;;;31.27;;
42000;SDS011;27689;48.390;10.856;2022-12-16T07:33:31;52.95;;;31.02;;
42000;SDS011;27689;48.390;10.856;2022-12-16T07:36:34;52.85;;;30.90;;
42000;SDS011;27689;48.390;10.856;2022-12-16T07:39:37;57.15;;;32.25;;
42000;SDS011;27689;48.390;10.856;2022-12-16T07:42:46;51.13;;;32.15;;
42000;SDS011;27689;48.390;10.856;2022-12-16T07:45:49;57.17;;;33.83;;
42000;SDS011;27689;48.390;10.856;2022-12-16T07:48:52;55.80;;;32.88;;
42000;SDS011;27689;48.390;10.856;2022-12-16T07:51:54;71.60;;;39.03;;
42000;SDS011;27689;48.390;10.856;2022-12-16T07:54:57;57.42;;;33.47;;
42000;SDS011;27689;48.390;10.856;2022-12-16T07:58:00;68.22;;;37.05;;
42000;SDS011;27689;48.390;10.856;2022-12-16T08:01:03;65.78;;;36.47;;
42000;SDS011;27689;48.390;10.856;2022-12-16T08:04:06;59.30;;;33.90;;
42000;SDS011;27689;48.390;10.856;2022-12-16T08:07:09;54.83;;;32.67;;
42000;SDS011;27689;48.390;10.856;2022-12-16T08:10:12;56.03;;;33.78;;
42000;SDS011;27689;48.390;10.856;2022-12-16T08:13:15;53.85;;;34.33;;
42000;SDS011;27689;48.390;10.856;2022-12-16T08:16:18;51.85;;;32.83;;
42000;SDS011;27689;48.390;10.856;2022-12-16T08:19:34;52.35;;;33.17;;
42000;SDS011;27689;48.390;10.856;2022-12-16T08:22:38;56.00;;;33.22;;
42000;SDS011;27689;48.390;10.856;2022-12-16T08:25:41;50.17;;;33.63;;
42000;SDS011;27689;48.390;10.856;2022-12-16T08:28:44;54.13;;;33.80;;
42000;SDS011;27689;48.390;10.856;2022-12-16T08:31:47;55.88;;;33.13;;
42000;SDS011;27689;48.390;10.856;2022-12-16T08:34:50;56.40;;;33.85;;
42000;SDS011;27689;48.390;10.856;2022-12-16T08:37:54;54.88;;;32.53;;
42000;SDS011;27689;48.390;10.856;2022-12-16T08:40:58;56.20;;;33.47;;
42000;SDS011;27689;48.390;10.856;2022-12-16T08:44:01;56.42;;;32.58;;
42000;SDS011;27689;48.390;10.856;2022-12-16T08:47:04;51.97;;;32.63;;
42000;SDS011;27689;48.390;10.856;2022-12-16T08:50:07;55.22;;;31.92;;
42000;SDS011;27689;48.390;10.856;2022-12-16T08:53:10;57.40;;;33.35;;
42000;SDS011;27689;48.390;10.856;2022-12-16T08:56:13;56.30;;;34.58;;
42000;SDS011;27689;48.390;10.856;2022-12-16T08:59:16;58.03;;;34.90;;
42000;SDS011;27689;48.390;10.856;2022-12-16T09:02:19;58.65;;;35.47;;
42000;SDS011;27689;48.390;10.856;2022-12-16T09:05:21;50.42;;;31.92;;
42000;SDS011;27689;48.390;10.856;2022-12-16T09:08:24;45.80;;;29.30;;
42000;SDS011;27689;48.390;10.856;2022-12-16T09:11:27;50.17;;;29.45;;
42000;SDS011;27689;48.390;10.856;2022-12-16T09:14:30;48.30;;;29.55;;
42000;SDS011;27689;48.390;10.856;2022-12-16T09:17:33;52.00;;;29.92;;
42000;SDS011;27689;48.390;10.856;2022-12-16T09:20:36;44.50;;;29.02;;
42000;SDS011;27689;48.390;10.856;2022-12-16T09:23:38;43.47;;;28.58;;
42000;SDS011;27689;48.390;10.856;2022-12-16T09:26:41;51.08;;;30.58;;
42000;SDS011;27689;48.390;10.856;2022-12-16T09:29:44;44.80;;;28.98;;
42000;SDS011;27689;48.390;10.856;2022-12-16T09:32:47;44.47;;;28.65;;
42000;SDS011;27689;48.390;10.856;2022-12-16T09:35:50;43.00;;;28.17;;
42000;SDS011;27689;48.390;10.856;2022-12-16T09:38:52;46.88;;;28.00;;
42000;SDS011;27689;48.390;10.856;2022-12-16T09:45:44;45.38;;;27.33;;
42000;SDS011;27689;48.390;10.856;2022-12-16T09:52:01;43.50;;;26.00;;
42000;SDS011;27689;48.390;10.856;2022-12-16T09:55:05;46.83;;;28.53;;
42000;SDS011;27689;48.390;10.856;2022-12-16T09:58:23;45.13;;;26.88;;
42000;SDS011;27689;48.390;10.856;2022-12-16T10:01:31;46.20;;;28.90;;
42000;SDS011;27689;48.390;10.856;2022-12-16T10:04:37;42.60;;;28.00;;
42000;SDS011;27689;48.390;10.856;2022-12-16T10:07:44;45.08;;;28.60;;
42000;SDS011;27689;48.390;10.856;2022-12-16T10:11:18;43.28;;;27.48;;
42000;SDS011;27689;48.390;10.856;2022-12-16T10:14:31;48.33;;;29.52;;
42000;SDS011;27689;48.390;10.856;2022-12-16T10:17:42;49.40;;;29.92;;
42000;SDS011;27689;48.390;10.856;2022-12-16T10:20:50;48.60;;;28.73;;
42000;SDS011;27689;48.390;10.856;2022-12-16T10:24:02;51.70;;;31.25;;
42000;SDS011;27689;48.390;10.856;2022-12-16T10:27:38;46.00;;;28.15;;
42000;SDS011;27689;48.390;10.856;2022-12-16T10:30:46;48.33;;;29.00;;
42000;SDS011;27689;48.390;10.856;2022-12-16T10:33:49;48.97;;;29.23;;
42000;SDS011;27689;48.390;10.856;2022-12-16T10:36:53;45.03;;;29.52;;
42000;SDS011;27689;48.390;10.856;2022-12-16T10:39:57;46.15;;;28.60;;
42000;SDS011;27689;48.390;10.856;2022-12-16T10:43:15;47.75;;;30.15;;
42000;SDS011;27689;48.390;10.856;2022-12-16T10:46:22;48.67;;;30.80;;
42000;SDS011;27689;48.390;10.856;2022-12-16T10:49:29;45.65;;;29.45;;
42000;SDS011;27689;48.390;10.856;2022-12-16T10:52:32;48.30;;;29.40;;
42000;SDS011;27689;48.390;10.856;2022-12-16T10:55:45;48.63;;;29.23;;
42000;SDS011;27689;48.390;10.856;2022-12-16T10:59:00;47.85;;;30.10;;
42000;SDS011;27689;48.390;10.856;2022-12-16T11:02:16;45.35;;;27.92;;
42000;SDS011;27689;48.390;10.856;2022-12-16T11:05:27;44.70;;;28.92;;
42000;SDS011;27689;48.390;10.856;2022-12-16T11:08:34;49.80;;;29.75;;
42000;SDS011;27689;48.390;10.856;2022-12-16T11:11:37;44.33;;;28.60;;
42000;SDS011;27689;48.390;10.856;2022-12-16T11:14:40;43.00;;;27.55;;
42000;SDS011;27689;48.390;10.856;2022-12-16T11:18:01;50.60;;;28.67;;
42000;SDS011;27689;48.390;10.856;2022-12-16T11:21:19;46.08;;;28.02;;
42000;SDS011;27689;48.390;10.856;2022-12-16T11:24:23;39.05;;;25.63;;
42000;SDS011;27689;48.390;10.856;2022-12-16T11:27:26;46.00;;;27.60;;
42000;SDS011;27689;48.390;10.856;2022-12-16T11:30:29;42.22;;;28.50;;
42000;SDS011;27689;48.390;10.856;2022-12-16T11:33:32;44.75;;;26.98;;
42000;SDS011;27689;48.390;10.856;2022-12-16T11:36:35;43.53;;;26.38;;
42000;SDS011;27689;48.390;10.856;2022-12-16T11:39:41;43.63;;;27.15;;
42000;SDS011;27689;48.390;10.856;2022-12-16T11:42:43;43.65;;;28.60;;
42000;SDS011;27689;48.390;10.856;2022-12-16T11:45:47;43.03;;;27.13;;
42000;SDS011;27689;48.390;10.856;2022-12-16T11:52:04;41.88;;;26.67;;
42000;SDS011;27689;48.390;10.856;2022-12-16T11:55:13;40.78;;;26.48;;
42000;SDS011;27689;48.390;10.856;2022-12-16T11:58:38;42.72;;;26.65;;
42000;SDS011;27689;48.390;10.856;2022-12-16T12:01:52;39.75;;;25.33;;
42000;SDS011;27689;48.390;10.856;2022-12-16T12:04:59;35.92;;;24.45;;
42000;SDS011;27689;48.390;10.856;2022-12-16T12:08:14;37.80;;;24.65;;
42000;SDS011;27689;48.390;10.856;2022-12-16T12:20:46;39.30;;;24.75;;
42000;SDS011;27689;48.390;10.856;2022-12-16T12:30:38;36.38;;;23.38;;
42000;SDS011;27689;48.390;10.856;2022-12-16T12:37:23;34.53;;;23.42;;
42000;SDS011;27689;48.390;10.856;2022-12-16T12:47:26;35.78;;;21.73;;
42000;SDS011;27689;48.390;10.856;2022-12-16T12:50:33;33.05;;;21.70;;
42000;SDS011;27689;48.390;10.856;2022-12-16T12:54:13;31.05;;;21.00;;
42000;SDS011;27689;48.390;10.856;2022-12-16T12:57:26;31.50;;;21.20;;
42000;SDS011;27689;48.390;10.856;2022-12-16T13:00:31;38.03;;;25.33;;
42000;SDS011;27689;48.390;10.856;2022-12-16T13:07:03;33.17;;;23.02;;
42000;SDS011;27689;48.390;10.856;2022-12-16T13:10:11;34.77;;;22.83;;
42000;SDS011;27689;48.390;10.856;2022-12-16T13:16:54;37.67;;;24.05;;
42000;SDS011;27689;48.390;10.856;2022-12-16T13:19:52;39.60;;;23.95;;
42000;SDS011;27689;48.390;10.856;2022-12-16T13:22:56;36.78;;;22.90;;
42000;SDS011;27689;48.390;10.856;2022-12-16T13:26:03;36.20;;;23.75;;
42000;SDS011;27689;48.390;10.856;2022-12-16T13:32:20;33.50;;;22.48;;
42000;SDS011;27689;48.390;10.856;2022-12-16T13:35:27;33.92;;;21.92;;
42000;SDS011;27689;48.390;10.856;2022-12-16T13:38:29;30.55;;;20.67;;
42000;SDS011;27689;48.390;10.856;2022-12-16T13:50:48;30.50;;;20.00;;
42000;SDS011;27689;48.390;10.856;2022-12-16T13:53:53;25.75;;;18.70;;
42000;SDS011;27689;48.390;10.856;2022-12-16T13:56:59;28.27;;;20.67;;
42000;SDS011;27689;48.390;10.856;2022-12-16T14:00:15;31.40;;;21.35;;
42000;SDS011;27689;48.390;10.856;2022-12-16T14:03:21;28.63;;;19.35;;
42000;SDS011;27689;48.390;10.856;2022-12-16T14:06:35;30.48;;;20.35;;
42000;SDS011;27689;48.390;10.856;2022-12-16T14:09:41;36.42;;;24.85;;
42000;SDS011;27689;48.390;10.856;2022-12-16T14:19:38;30.65;;;21.05;;
42000;SDS011;27689;48.390;10.856;2022-12-16T14:26:08;30.30;;;19.10;;
42000;SDS011;27689;48.390;10.856;2022-12-16T14:29:30;30.92;;;20.25;;
42000;SDS011;27689;48.390;10.856;2022-12-16T14:32:34;28.38;;;20.08;;
42000;SDS011;27689;48.390;10.856;2022-12-16T14:35:36;31.40;;;22.58;;
42000;SDS011;27689;48.390;10.856;2022-12-16T14:38:58;38.53;;;22.92;;
42000;SDS011;27689;48.390;10.856;2022-12-16T14:42:01;31.35;;;22.02;;
42000;SDS011;27689;48.390;10.856;2022-12-16T14:45:04;32.05;;;22.27;;
42000;SDS011;27689;48.390;10.856;2022-12-16T14:48:27;33.53;;;22.65;;
42000;SDS011;27689;48.390;10.856;2022-12-16T14:51:34;37.08;;;25.90;;
42000;SDS011;27689;48.390;10.856;2022-12-16T14:54:49;33.10;;;23.83;;
42000;SDS011;27689;48.390;10.856;2022-12-16T14:58:02;33.80;;;25.42;;
42000;SDS011;27689;48.390;10.856;2022-12-16T15:01:17;35.50;;;22.73;;
42000;SDS011;27689;48.390;10.856;2022-12-16T15:04:23;32.47;;;22.40;;
42000;SDS011;27689;48.390;10.856;2022-12-16T15:07:26;32.50;;;21.80;;
42000;SDS011;27689;48.390;10.856;2022-12-16T15:10:35;33.33;;;23.05;;
42000;SDS011;27689;48.390;10.856;2022-12-16T15:13:39;32.20;;;23.65;;
42000;SDS011;27689;48.390;10.856;2022-12-16T15:16:42;34.40;;;22.60;;
42000;SDS011;27689;48.390;10.856;2022-12-16T15:19:48;33.30;;;23.17;;
42000;SDS011;27689;48.390;10.856;2022-12-16T15:22:54;36.67;;;23.23;;
42000;SDS011;27689;48.390;10.856;2022-12-16T15:25:57;35.42;;;24.15;;
42000;SDS011;27689;48.390;10.856;2022-12-16T15:29:00;32.15;;;22.55;;
42000;SDS011;27689;48.390;10.856;2022-12-16T15:32:20;33.22;;;22.00;;
42000;SDS011;27689;48.390;10.856;2022-12-16T15:35:35;31.58;;;21.55;;
42000;SDS011;27689;48.390;10.856;2022-12-16T15:38:39;40.38;;;25.85;;
42000;SDS011;27689;48.390;10.856;2022-12-16T15:41:45;52.65;;;30.30;;
42000;SDS011;27689;48.390;10.856;2022-12-16T15:44:49;36.67;;;24.30;;
42000;SDS011;27689;48.390;10.856;2022-12-16T15:47:53;36.38;;;24.70;;
42000;SDS011;27689;48.390;10.856;2022-12-16T15:50:56;38.15;;;24.38;;
42000;SDS011;27689;48.390;10.856;2022-12-16T15:54:00;36.85;;;23.05;;
42000;SDS011;27689;48.390;10.856;2022-12-16T15:57:23;49.53;;;29.73;;
42000;SDS011;27689;48.390;10.856;2022-12-16T16:00:28;44.15;;;28.35;;
42000;SDS011;27689;48.390;10.856;2022-12-16T16:03:32;48.00;;;29.60;;
42000;SDS011;27689;48.390;10.856;2022-12-16T16:06:36;37.35;;;23.75;;
42000;SDS011;27689;48.390;10.856;2022-12-16T16:09:39;33.25;;;22.13;;
42000;SDS011;27689;48.390;10.856;2022-12-16T16:12:42;32.05;;;21.35;;
42000;SDS011;27689;48.390;10.856;2022-12-16T16:15:45;31.42;;;20.30;;
42000;SDS011;27689;48.390;10.856;2022-12-16T16:18:48;28.83;;;20.10;;
42000;SDS011;27689;48.390;10.856;2022-12-16T16:21:51;29.45;;;21.05;;
42000;SDS011;27689;48.390;10.856;2022-12-16T16:24:54;33.10;;;22.27;;
42000;SDS011;27689;48.390;10.856;2022-12-16T16:27:57;38.67;;;23.63;;
42000;SDS011;27689;48.390;10.856;2022-12-16T16:31:00;34.78;;;21.85;;
42000;SDS011;27689;48.390;10.856;2022-12-16T16:34:03;32.58;;;20.92;;
42000;SDS011;27689;48.390;10.856;2022-12-16T16:37:07;34.22;;;21.65;;
42000;SDS011;27689;48.390;10.856;2022-12-16T16:40:35;33.83;;;21.20;;
42000;SDS011;27689;48.390;10.856;2022-12-16T16:43:40;29.33;;;20.37;;
42000;SDS011;27689;48.390;10.856;2022-12-16T16:46:43;34.45;;;22.40;;
42000;SDS011;27689;48.390;10.856;2022-12-16T16:49:48;31.23;;;21.73;;
42000;SDS011;27689;48.390;10.856;2022-12-16T16:52:50;28.35;;;20.42;;
42000;SDS011;27689;48.390;10.856;2022-12-16T16:55:53;30.40;;;20.48;;
42000;SDS011;27689;48.390;10.856;2022-12-16T16:58:56;34.63;;;22.98;;
42000;SDS011;27689;48.390;10.856;2022-12-16T17:01:59;32.63;;;21.40;;
42000;SDS011;27689;48.390;10.856;2022-12-16T17:05:02;30.90;;;20.50;;
42000;SDS011;27689;48.390;10.856;2022-12-16T17:08:06;31.88;;;20.27;;
42000;SDS011;27689;48.390;10.856;2022-12-16T17:11:12;31.80;;;20.60;;
42000;SDS011;27689;48.390;10.856;2022-12-16T17:14:19;29.73;;;20.92;;
42000;SDS011;27689;48.390;10.856;2022-12-16T17:17:23;38.03;;;23.50;;
42000;SDS011;27689;48.390;10.856;2022-12-16T17:20:25;30.95;;;21.27;;
42000;SDS011;27689;48.390;10.856;2022-12-16T17:23:28;31.40;;;20.65;;
42000;SDS011;27689;48.390;10.856;2022-12-16T17:26:31;28.40;;;18.67;;
42000;SDS011;27689;48.390;10.856;2022-12-16T17:29:34;34.83;;;22.58;;
42000;SDS011;27689;48.390;10.856;2022-12-16T17:32:37;33.45;;;20.95;;
42000;SDS011;27689;48.390;10.856;2022-12-16T17:35:39;30.90;;;19.10;;
42000;SDS011;27689;48.390;10.856;2022-12-16T17:38:43;30.50;;;20.38;;
42000;SDS011;27689;48.390;10.856;2022-12-16T17:41:46;31.20;;;19.90;;
42000;SDS011;27689;48.390;10.856;2022-12-16T17:44:48;29.02;;;19.13;;
42000;SDS011;27689;48.390;10.856;2022-12-16T17:47:51;28.80;;;19.35;;
42000;SDS011;27689;48.390;10.856;2022-12-16T17:50:54;29.63;;;19.10;;
42000;SDS011;27689;48.390;10.856;2022-12-16T17:53:57;30.92;;;20.30;;
42000;SDS011;27689;48.390;10.856;2022-12-16T17:57:00;31.80;;;20.55;;
42000;SDS011;27689;48.390;10.856;2022-12-16T18:00:03;25.70;;;18.38;;
42000;SDS011;27689;48.390;10.856;2022-12-16T18:03:06;26.58;;;18.05;;
42000;SDS011;27689;48.390;10.856;2022-12-16T18:06:09;29.45;;;20.27;;
42000;SDS011;27689;48.390;10.856;2022-12-16T18:09:12;27.58;;;18.98;;
42000;SDS011;27689;48.390;10.856;2022-12-16T18:12:15;27.80;;;19.40;;
42000;SDS011;27689;48.390;10.856;2022-12-16T18:15:18;31.45;;;19.55;;
42000;SDS011;27689;48.390;10.856;2022-12-16T18:18:20;32.00;;;20.60;;
42000;SDS011;27689;48.390;10.856;2022-12-16T18:21:23;32.78;;;19.95;;
42000;SDS011;27689;48.390;10.856;2022-12-16T18:24:26;35.15;;;21.20;;
42000;SDS011;27689;48.390;10.856;2022-12-16T18:27:29;26.95;;;20.13;;
42000;SDS011;27689;48.390;10.856;2022-12-16T18:30:32;25.50;;;19.08;;
42000;SDS011;27689;48.390;10.856;2022-12-16T18:33:37;25.15;;;19.02;;
42000;SDS011;27689;48.390;10.856;2022-12-16T18:36:40;32.50;;;20.60;;
42000;SDS011;27689;48.390;10.856;2022-12-16T18:39:59;29.63;;;20.17;;
42000;SDS011;27689;48.390;10.856;2022-12-16T18:43:02;28.50;;;20.02;;
42000;SDS011;27689;48.390;10.856;2022-12-16T18:46:05;29.20;;;20.05;;
42000;SDS011;27689;48.390;10.856;2022-12-16T18:49:08;27.58;;;19.52;;
42000;SDS011;27689;48.390;10.856;2022-12-16T18:52:11;32.70;;;21.50;;
42000;SDS011;27689;48.390;10.856;2022-12-16T18:55:14;30.35;;;20.25;;
42000;SDS011;27689;48.390;10.856;2022-12-16T18:58:17;30.48;;;19.92;;
42000;SDS011;27689;48.390;10.856;2022-12-16T19:01:20;24.42;;;17.88;;
42000;SDS011;27689;48.390;10.856;2022-12-16T19:04:23;27.88;;;18.42;;